createdAt,value
2022-12-31T15:52:55.172Z,90
2022-12-31T15:58:03.259Z,76.5
2022-12-31T16:03:11.586Z,76.5
2022-12-31T16:08:19.749Z,76
2022-12-31T16:18:36.106Z,75.5
2022-12-31T16:23:44.311Z,76
2022-12-31T16:34:00.634Z,76.5
2022-12-31T16:39:08.768Z,76
2022-12-31T16:44:16.943Z,76
2022-12-31T16:49:25.106Z,75
2022-12-31T16:54:33.257Z,75
2022-12-31T16:59:41.444Z,75
2022-12-31T17:04:49.766Z,74.5
2022-12-31T17:09:57.985Z,74.5
2022-12-31T17:15:06.114Z,75
2022-12-31T17:20:14.409Z,75
2022-12-31T17:25:22.459Z,74
2022-12-31T17:30:30.712Z,74
2022-12-31T17:35:38.775Z,74.5
2022-12-31T17:40:46.953Z,74
2022-12-31T17:45:55.140Z,73.5
2022-12-31T17:51:03.345Z,73
2022-12-31T17:56:11.476Z,73
2022-12-31T18:01:19.831Z,72.5
2022-12-31T18:06:28.165Z,73
2022-12-31T18:11:36.400Z,73.5
2022-12-31T18:16:44.607Z,74
2022-12-31T18:21:52.653Z,74.5
2022-12-31T18:27:00.812Z,74.5
2022-12-31T18:32:09.110Z,75
2022-12-31T18:37:17.131Z,74.5
2022-12-31T18:42:25.327Z,75
2022-12-31T18:47:33.485Z,74.5
2022-12-31T18:52:41.657Z,74
2022-12-31T18:57:49.824Z,74
2022-12-31T19:02:58.074Z,74.5
2022-12-31T19:08:06.161Z,74.5
2022-12-31T19:13:14.323Z,75
2022-12-31T19:18:22.562Z,74.5
2022-12-31T19:23:30.721Z,74
2022-12-31T19:28:38.841Z,74
2022-12-31T19:38:55.216Z,73
2022-12-31T19:44:03.349Z,72
2022-12-31T19:49:11.534Z,72
2022-12-31T19:54:19.714Z,71.5
2022-12-31T19:59:27.872Z,71.5
2022-12-31T20:09:44.248Z,71
2022-12-31T20:14:52.552Z,70.5
2022-12-31T20:20:00.691Z,70
2022-12-31T20:25:08.727Z,70
2022-12-31T20:30:16.904Z,70
2022-12-31T20:35:25.085Z,70.5
2022-12-31T20:40:33.315Z,70.5
2022-12-31T20:50:49.587Z,70
2022-12-31T20:55:57.919Z,70
2022-12-31T21:01:06.071Z,69.5
2022-12-31T21:06:14.237Z,69.5
2022-12-31T21:11:22.412Z,69.5
2022-12-31T21:16:30.587Z,69.5
2022-12-31T21:21:38.797Z,69.5
2022-12-31T21:26:46.916Z,69.5
2022-12-31T21:31:55.214Z,69.5
2022-12-31T21:37:03.388Z,69
2022-12-31T21:42:11.526Z,69.5
2022-12-31T21:47:19.615Z,68.5
2022-12-31T21:52:27.796Z,68.5
2022-12-31T21:57:36.160Z,68
2022-12-31T22:02:44.339Z,68.5
2022-12-31T22:07:52.489Z,67.5
2022-12-31T22:13:00.660Z,68
2022-12-31T22:18:08.906Z,67
2022-12-31T22:23:17.229Z,66.5
2022-12-31T22:28:25.318Z,66.5
2022-12-31T22:33:33.505Z,66.5
2022-12-31T22:38:41.700Z,67
2022-12-31T22:43:49.858Z,66.5
2022-12-31T22:48:58.038Z,66.5
2022-12-31T22:54:06.182Z,66
2022-12-31T22:59:14.349Z,65.5
2022-12-31T23:04:22.526Z,65.5
2022-12-31T23:09:30.979Z,66
2022-12-31T23:14:38.945Z,65
2022-12-31T23:19:47.032Z,65
2022-12-31T23:24:55.347Z,64.5
2022-12-31T23:30:03.369Z,63
2022-12-31T23:35:11.643Z,63
2022-12-31T23:40:19.702Z,62
2022-12-31T23:45:27.879Z,61.5
2022-12-31T23:50:36.120Z,61.5
2022-12-31T23:55:44.254Z,61
